To NAV CANADA Home Page Login to a new session Search on AWWS site Feedback and Comments Disclaimer Vers la page française équivalente Tips FAQ What's new on the site To the Forecasts and Observations / NOTAM section To "File a Flight Plan" website Publications and other links Update of the User's profile FIC Telephone Numbers My Weather Data Folder Route Weather Data Regional Weather Data Local Weather Data To the Forecasts and Observations / NOTAM section
Request Generated 07/30/2016 at 09:11:23 UTC . Weather information available at that time is displayed.

METAR/TAF

DEASE LAKE/BC    (show WxCam)

METAR CYDL 300900Z AUTO 16004KT 9SM -RA OVC049 09/08 A3004 RMK
SLP178=
SPECI CYDL 300848Z AUTO 19003KT 130V250 6SM -RA BR FEW036 OVC049
09/08 A3004 RMK SLP179=
SPECI CYDL 300830Z AUTO 21003KT 180V240 5SM RA BR BKN038 OVC049 09/08
A3005 RMK SLP182=
SPECI CYDL 300828Z AUTO 22003KT 180V240 6SM RA BR BKN038 OVC049 09/08
A3005 RMK SLP182=
SPECI CYDL 300808Z AUTO 19004KT 170V250 5SM RA BR FEW041 BKN047
OVC055 09/09 A3005 RMK SLP181=
SPECI CYDL 300802Z AUTO VRB02KT 6SM -RA BR BKN046 OVC055 09/09 A3005
RMK SLP181=
METAR CYDL 300800Z AUTO 23003KT 180V260 5SM -RA BR BKN046 OVC055
09/09 A3005 RMK SLP181=
SPECI CYDL 300723Z AUTO VRB02KT 4SM RA BR OVC046 09/08 A3005 RMK
SLP180=
SPECI CYDL 300717Z AUTO VRB02KT 4SM +RA BR OVC046 09/09 A3005 RMK
SLP180=
SPECI CYDL 300707Z AUTO VRB04KT 5SM RA BR OVC048 10/08 A3005 RMK
SLP180=
METAR CYDL 300700Z AUTO VRB02KT 8SM RA OVC050 10/08 A3004 RMK SLP178=

*** REMARK        : Forecast period has ended; this was the last TAF issued
*** REMARQUE : La période de prévision est échue; ceci était le dernier TAF qui a été émis
TAF CYDL 292338Z 3000/3002 22005KT P6SM BKN060 TEMPO 3000/3002 P6SM
-SHRA
RMK FCST BASED ON AUTO OBS. NXT FCST WILL BE ISSUED AT 301545Z=
Your time UTC time
Weather data provided by Environment Canada and NAV CANADA